Time;durP1;ratioP1;P1;durP2;ratioP2;P2;SDS_P1;SDS_P2;PMS_P1;PMS_P2;Temp;Humidity;BMP_temperature;BMP_pressure;BME280_temperature;BME280_humidity;BME280_pressure;Samples;Min_cycle;Max_cycle;Signal;HPM_P1;HPM_P2
2021/12/19 00:00:52;;;;;;;26.85;11.07;;;;;;;9.94;91.70;103389.16;7383540;19;20014;-68
2021/12/19 00:11:10;;;;;;;25.75;9.70;;;;;;;9.87;92.71;103370.22;7380612;19;20625;-66
2021/12/19 00:13:40;;;;;;;39.28;12.75;;;;;;;9.84;92.97;103369.56;7382950;19;20049;-66
2021/12/19 00:16:11;;;;;;;31.15;10.38;;;;;;;9.87;93.53;103377.25;7391631;19;20073;-69
2021/12/19 00:18:41;;;;;;;31.98;10.38;;;;;;;9.86;93.29;103365.03;7390663;19;20086;-69
2021/12/19 00:21:10;;;;;;;28.77;10.35;;;;;;;9.81;93.33;103367.94;7389135;19;20011;-68
2021/12/19 00:23:40;;;;;;;29.27;10.93;;;;;;;9.80;93.32;103365.41;7389695;19;20014;-67
2021/12/19 00:26:08;;;;;;;27.92;9.25;;;;;;;9.80;93.36;103360.16;7389482;19;20056;-67
2021/12/19 00:28:36;;;;;;;35.25;9.63;;;;;;;9.80;93.23;103363.59;7390367;19;20031;-68
2021/12/19 00:31:04;;;;;;;29.52;9.18;;;;;;;9.81;93.07;103354.78;7387989;19;20011;-66
2021/12/19 00:33:32;;;;;;;28.42;8.85;;;;;;;9.81;92.81;103352.16;7388353;19;20062;-67
2021/12/19 00:36:00;;;;;;;26.13;8.50;;;;;;;9.81;92.83;103349.53;7388783;19;20150;-68
2021/12/19 00:38:27;;;;;;;28.05;9.32;;;;;;;9.82;92.71;103358.25;7386893;19;20354;-67
2021/12/19 00:40:56;;;;;;;29.92;10.45;;;;;;;9.82;92.75;103366.16;7391390;19;20589;-66
2021/12/19 00:46:06;;;;;;;25.80;9.32;;;;;;;9.77;92.81;103376.06;7389826;19;20031;-69
2021/12/19 00:48:36;;;;;;;29.35;9.88;;;;;;;9.76;92.71;103364.72;7390902;19;20042;-67
2021/12/19 00:51:04;;;;;;;25.13;9.35;;;;;;;9.73;92.27;103367.53;7387169;19;20018;-68
2021/12/19 00:53:32;;;;;;;26.38;10.48;;;;;;;9.67;92.29;103365.22;7389688;19;20038;-67
2021/12/19 00:56:01;;;;;;;26.25;8.55;;;;;;;9.61;92.90;103362.06;7386186;19;20022;-66
2021/12/19 00:58:28;;;;;;;33.00;10.27;;;;;;;9.62;93.56;103362.00;7385894;19;20015;-68
2021/12/19 01:00:59;;;;;;;27.00;9.00;;;;;;;9.62;93.50;103355.88;7390575;19;20202;-67
2021/12/19 01:03:26;;;;;;;25.33;8.52;;;;;;;9.62;93.23;103354.09;7391005;19;20313;-68
2021/12/19 01:05:54;;;;;;;26.27;8.52;;;;;;;9.60;93.07;103350.69;7387605;19;20044;-67
2021/12/19 01:08:22;;;;;;;27.90;8.15;;;;;;;9.58;92.89;103352.59;7385529;19;20078;-68
2021/12/19 01:10:49;;;;;;;18.42;6.35;;;;;;;9.57;92.62;103350.03;7389397;19;20036;-68
2021/12/19 01:13:17;;;;;;;23.70;7.30;;;;;;;9.55;92.91;103358.00;7390230;19;20007;-67
2021/12/19 01:15:45;;;;;;;28.02;7.75;;;;;;;9.55;92.92;103359.81;7389521;19;20007;-67
2021/12/19 01:18:14;;;;;;;24.58;7.03;;;;;;;9.56;93.31;103369.34;7387454;19;20413;-67
2021/12/19 01:20:42;;;;;;;20.17;6.60;;;;;;;9.54;92.81;103361.56;7386089;19;20010;-67
2021/12/19 01:23:10;;;;;;;23.02;7.10;;;;;;;9.47;92.63;103367.22;7391271;19;20025;-68
2021/12/19 01:25:38;;;;;;;22.98;7.50;;;;;;;9.45;92.68;103364.69;7384630;19;20026;-66
2021/12/19 01:28:06;;;;;;;19.55;5.90;;;;;;;9.41;92.52;103365.78;7389120;19;20070;-67
2021/12/19 01:30:33;;;;;;;21.95;6.07;;;;;;;9.40;93.03;103370.19;7386520;19;20092;-69
2021/12/19 01:33:00;;;;;;;18.55;5.55;;;;;;;9.40;92.69;103361.44;7387753;19;20044;-67
2021/12/19 01:35:28;;;;;;;19.75;6.03;;;;;;;9.36;92.76;103354.66;7389220;19;20019;-69
2021/12/19 01:37:55;;;;;;;19.67;5.60;;;;;;;9.35;92.84;103364.31;7386515;19;20079;-68
2021/12/19 01:40:23;;;;;;;19.67;5.63;;;;;;;9.32;92.92;103350.50;7385187;19;20043;-69
2021/12/19 01:42:54;;;;;;;18.13;5.78;;;;;;;9.33;93.15;103352.22;7387304;19;20118;-67
2021/12/19 01:45:28;;;;;;;22.52;6.10;;;;;;;9.29;93.68;103351.53;7388744;19;20007;-68
2021/12/19 01:48:01;;;;;;;23.15;6.40;;;;;;;9.32;93.81;103348.75;7384433;19;20058;-68
2021/12/19 01:50:31;;;;;;;20.25;5.68;;;;;;;9.34;93.93;103351.28;7384789;19;20010;-66
2021/12/19 01:52:59;;;;;;;18.45;5.25;;;;;;;9.35;93.59;103355.59;7385316;19;20608;-67
2021/12/19 01:55:27;;;;;;;15.60;4.63;;;;;;;9.31;92.79;103346.19;7384482;19;20047;-67
2021/12/19 01:57:54;;;;;;;30.52;5.78;;;;;;;9.24;93.32;103343.06;7384449;19;20459;-69
2021/12/19 02:00:25;;;;;;;23.90;5.78;;;;;;;9.28;93.94;103341.97;7386594;19;20007;-69
2021/12/19 02:02:53;;;;;;;19.42;5.28;;;;;;;9.30;94.32;103336.59;7383293;19;20063;-68
2021/12/19 02:05:21;;;;;;;16.95;4.43;;;;;;;9.30;94.23;103337.44;7389339;19;20015;-67
2021/12/19 02:07:49;;;;;;;20.33;5.07;;;;;;;9.28;94.01;103330.59;7384488;19;20011;-66
2021/12/19 02:10:20;;;;;;;21.42;5.53;;;;;;;9.29;94.05;103335.78;7384587;19;20044;-68
2021/12/19 02:12:51;;;;;;;38.55;7.25;;;;;;;9.32;94.82;103338.22;7384702;19;20341;-67
2021/12/19 02:15:22;;;;;;;18.27;5.00;;;;;;;9.35;95.08;103330.16;7384461;19;20036;-70
2021/12/19 02:17:53;;;;;;;20.25;5.30;;;;;;;9.35;94.69;103332.78;7385381;19;20082;-67
2021/12/19 02:20:22;;;;;;;21.00;5.47;;;;;;;9.32;94.43;103332.97;7383844;19;20015;-67
2021/12/19 02:22:50;;;;;;;17.50;5.75;;;;;;;9.33;94.47;103328.56;7385753;19;20010;-67
2021/12/19 02:25:17;;;;;;;19.90;5.32;;;;;;;9.33;94.30;103324.16;7389708;19;20011;-68
2021/12/19 02:27:45;;;;;;;50.00;6.18;;;;;;;9.36;94.60;103320.50;7386486;19;20019;-69
2021/12/19 02:30:13;;;;;;;19.05;5.65;;;;;;;9.37;94.44;103320.44;7384126;19;20011;-68
2021/12/19 02:32:41;;;;;;;21.27;6.05;;;;;;;9.38;94.61;103323.91;7385562;19;20504;-67
2021/12/19 02:35:17;;;;;;;16.13;4.28;;;;;;;9.36;94.29;103321.38;7361452;19;20017;-68
2021/12/19 02:50:24;;;;;;;22.00;5.93;;;;;;;9.38;93.94;103310.78;7383120;19;20014;-69
2021/12/19 02:52:53;;;;;;;20.45;5.30;;;;;;;9.31;93.70;103315.50;7385503;19;20818;-68
2021/12/19 02:55:21;;;;;;;22.58;6.65;;;;;;;9.30;93.99;103310.31;7387355;19;20378;-67
2021/12/19 02:57:50;;;;;;;22.95;5.97;;;;;;;9.26;94.31;103306.19;7384858;19;20618;-66
2021/12/19 03:00:24;;;;;;;21.00;6.00;;;;;;;9.26;94.72;103311.44;7384499;19;20042;-66
2021/12/19 03:02:52;;;;;;;20.42;5.05;;;;;;;9.25;94.65;103317.59;7386632;19;20421;-66
2021/12/19 03:05:20;;;;;;;22.52;5.55;;;;;;;9.22;94.40;103313.38;7385400;19;20038;-68
2021/12/19 03:07:49;;;;;;;22.48;6.55;;;;;;;9.20;93.89;103311.75;7389413;19;20018;-66
2021/12/19 03:18:05;;;;;;;21.85;6.13;;;;;;;9.16;94.28;103299.72;7380723;19;20007;-67
2021/12/19 03:20:33;;;;;;;18.08;5.47;;;;;;;9.13;94.16;103294.66;7381537;19;20649;-67
2021/12/19 03:23:07;;;;;;;21.98;4.72;;;;;;;9.09;94.36;103299.22;7383749;19;20113;-68
2021/12/19 03:25:35;;;;;;;21.67;5.05;;;;;;;9.08;94.72;103289.66;7382933;19;20020;-67
2021/12/19 03:28:06;;;;;;;24.42;5.93;;;;;;;9.07;95.04;103292.34;7382133;19;20114;-66
2021/12/19 03:30:36;;;;;;;18.92;5.15;;;;;;;9.09;94.49;103286.09;7363318;19;20563;-67
2021/12/19 03:33:04;;;;;;;23.80;5.28;;;;;;;9.07;94.13;103279.22;7380364;19;20106;-67
2021/12/19 03:35:32;;;;;;;17.25;4.25;;;;;;;9.00;93.88;103282.16;7384472;19;20007;-68
2021/12/19 03:38:03;;;;;;;19.58;5.40;;;;;;;9.02;93.61;103277.69;7379979;19;20538;-66
2021/12/19 03:43:08;;;;;;;17.35;4.03;;;;;;;9.02;93.71;103275.06;7383740;19;20040;-67
2021/12/19 03:45:36;;;;;;;15.48;4.03;;;;;;;8.97;93.45;103261.34;7383149;19;20007;-67
2021/12/19 03:48:08;;;;;;;20.20;4.45;;;;;;;8.92;93.30;103258.09;7386713;19;20511;-66
2021/12/19 03:50:35;;;;;;;14.00;3.20;;;;;;;8.92;93.65;103268.59;7390329;19;20015;-66
2021/12/19 03:53:03;;;;;;;11.98;3.58;;;;;;;8.83;92.21;103255.97;7393465;19;20090;-68
2021/12/19 03:55:30;;;;;;;15.23;4.05;;;;;;;8.77;92.72;103256.28;7394779;19;20144;-68
2021/12/19 03:57:58;;;;;;;15.35;3.83;;;;;;;8.70;93.48;103262.78;7390566;19;20015;-67
2021/12/19 04:00:27;;;;;;;14.77;2.83;;;;;;;8.67;93.95;103256.84;7390240;19;20082;-66
2021/12/19 04:02:58;;;;;;;21.75;4.28;;;;;;;8.63;94.10;103252.69;7391047;19;20022;-68
2021/12/19 04:05:25;;;;;;;28.52;4.50;;;;;;;8.56;94.21;103253.00;7389060;19;20014;-67
2021/12/19 04:07:54;;;;;;;17.83;4.43;;;;;;;8.51;95.04;103252.41;7391129;19;20497;-67
2021/12/19 04:10:22;;;;;;;17.52;3.70;;;;;;;8.54;94.64;103246.97;7388951;19;20047;-67
2021/12/19 04:12:50;;;;;;;13.43;3.03;;;;;;;8.45;94.11;103244.00;7390480;19;20074;-67
2021/12/19 04:15:17;;;;;;;14.95;2.63;;;;;;;8.45;93.99;103231.72;7387285;19;20006;-68
2021/12/19 04:17:45;;;;;;;13.98;2.70;;;;;;;8.48;93.77;103230.72;7388344;19;20006;-68
2021/12/19 04:20:15;;;;;;;15.57;3.90;;;;;;;8.51;93.71;103227.94;7388580;19;20367;-68
2021/12/19 04:22:43;;;;;;;17.75;3.08;;;;;;;8.54;93.76;103233.00;7388488;19;20022;-67
2021/12/19 04:25:11;;;;;;;16.70;3.47;;;;;;;8.53;93.86;103240.03;7387507;19;20030;-65
2021/12/19 04:27:39;;;;;;;15.63;2.58;;;;;;;8.52;93.66;103233.13;7387987;19;20007;-67
2021/12/19 04:30:08;;;;;;;13.45;2.95;;;;;;;8.53;94.10;103226.91;7372879;19;20481;-68
2021/12/19 04:32:41;;;;;;;84.97;6.25;;;;;;;8.58;94.26;103226.69;7384583;19;20018;-66
2021/12/19 04:35:10;;;;;;;;;;;;;;;8.62;93.97;103222.97;7391798;19;20014;-67
2021/12/19 04:57:45;;;;;;;15.57;4.10;;;;;;;8.68;93.62;103220.03;7389006;19;20204;-67
2021/12/19 05:00:20;;;;;;;12.00;2.58;;;;;;;8.62;92.85;103214.25;7389321;19;20018;-66
2021/12/19 05:02:54;;;;;;;8.30;2.28;;;;;;;8.53;92.65;103218.22;7387715;19;20022;-67
2021/12/19 05:05:34;;;;;;;9.13;1.90;;;;;;;8.42;91.74;103208.28;7387946;19;20044;-67
2021/12/19 05:15:33;;;;;;;9.02;2.17;;;;;;;8.22;92.74;103197.94;7386146;19;20082;-67
2021/12/19 05:18:05;;;;;;;8.25;2.20;;;;;;;8.17;92.80;103205.19;7385817;19;20025;-67
2021/12/19 05:20:34;;;;;;;7.88;1.88;;;;;;;8.09;92.98;103200.31;7388140;19;20497;-66
2021/12/19 05:23:11;;;;;;;8.68;2.13;;;;;;;8.02;93.18;103200.72;7386999;19;20031;-66
2021/12/19 05:25:38;;;;;;;9.30;2.65;;;;;;;7.93;93.54;103199.41;7385872;19;20011;-68
2021/12/19 05:28:05;;;;;;;8.10;2.20;;;;;;;7.89;94.10;103203.09;7387542;19;20021;-68
2021/12/19 05:30:32;;;;;;;10.43;2.42;;;;;;;7.85;94.43;103204.19;7366701;19;20014;-66
2021/12/19 05:33:01;;;;;;;54.15;4.50;;;;;;;7.87;94.87;103201.50;7383264;19;20015;-67
2021/12/19 05:45:46;;;;;;;10.23;2.78;;;;;;;8.02;94.04;103195.50;7392481;19;20074;-67
2021/12/19 05:48:14;;;;;;;8.93;2.05;;;;;;;8.02;93.95;103195.50;7392923;19;20042;-68
2021/12/19 05:50:42;;;;;;;33.78;3.78;;;;;;;8.02;94.12;103195.50;7391105;19;20011;-65
2021/12/19 05:53:10;;;;;;;9.57;2.15;;;;;;;8.04;94.53;103191.84;7387536;19;20094;-69
2021/12/19 05:55:39;;;;;;;10.40;2.40;;;;;;;8.08;94.82;103189.91;7389949;19;20074;-65
2021/12/19 05:58:06;;;;;;;9.07;2.33;;;;;;;8.07;94.45;103194.34;7388279;19;20014;-69
2021/12/19 06:00:34;;;;;;;10.70;2.33;;;;;;;8.11;94.43;103195.88;7390615;19;20154;-72
2021/12/19 06:03:03;;;;;;;11.13;2.90;;;;;;;8.09;93.29;103189.84;7386657;19;20086;-68
2021/12/19 06:05:31;;;;;;;10.57;2.55;;;;;;;8.06;93.75;103174.28;7386800;19;20017;-70
2021/12/19 06:07:58;;;;;;;8.80;2.72;;;;;;;8.03;93.65;103171.78;7386544;19;20006;-68
2021/12/19 06:10:28;;;;;;;15.63;3.33;;;;;;;8.03;94.14;103177.03;7386054;19;20014;-68
2021/12/19 06:12:59;;;;;;;10.48;2.13;;;;;;;8.08;94.82;103180.28;7388677;19;20025;-67
2021/12/19 06:15:26;;;;;;;12.88;2.13;;;;;;;8.03;93.00;103178.81;7390846;19;20098;-66
2021/12/19 06:17:54;;;;;;;9.80;1.83;;;;;;;7.98;93.09;103179.03;7386845;19;20006;-67
2021/12/19 06:20:25;;;;;;;9.13;1.85;;;;;;;7.94;93.25;103180.13;7386508;19;20133;-66
2021/12/19 06:22:52;;;;;;;8.57;1.80;;;;;;;7.98;94.04;103178.19;7384708;19;20010;-67
2021/12/19 06:25:19;;;;;;;13.25;2.38;;;;;;;7.99;93.10;103169.41;7384332;19;20014;-67
2021/12/19 06:27:46;;;;;;;7.40;1.77;;;;;;;7.95;93.15;103166.09;7384205;19;20006;-67
2021/12/19 06:30:13;;;;;;;8.93;1.92;;;;;;;7.95;93.17;103160.88;7384232;19;20028;-67
2021/12/19 06:32:41;;;;;;;9.10;1.70;;;;;;;7.95;92.77;103160.88;7387749;19;20051;-67
2021/12/19 06:35:17;;;;;;;7.32;2.03;;;;;;;7.93;92.18;103160.09;7385952;19;20078;-68
2021/12/19 06:37:48;;;;;;;7.43;1.58;;;;;;;7.87;91.61;103164.81;7383008;19;20094;-67
2021/12/19 06:40:19;;;;;;;7.70;1.42;;;;;;;7.85;91.77;103164.03;7384573;19;20620;-66
2021/12/19 06:42:47;;;;;;;4.35;1.00;;;;;;;7.72;91.90;103158.53;7383791;19;20027;-68
2021/12/19 06:45:17;;;;;;;8.45;1.88;;;;;;;7.61;92.14;103159.09;7385604;19;20002;-67
2021/12/19 06:47:45;;;;;;;6.55;1.30;;;;;;;7.61;92.58;103164.34;7383827;19;20012;-70
2021/12/19 06:50:15;;;;;;;8.23;1.60;;;;;;;7.59;92.42;103157.47;7383186;19;20031;-68
2021/12/19 06:52:43;;;;;;;7.55;1.65;;;;;;;7.61;92.48;103156.47;7385181;19;20077;-68
2021/12/19 06:55:13;;;;;;;8.23;1.58;;;;;;;7.62;92.84;103152.91;7382939;19;20002;-68
2021/12/19 06:57:40;;;;;;;4.80;1.17;;;;;;;7.65;92.46;103150.16;7385267;19;20011;-68
2021/12/19 07:00:11;;;;;;;4.03;1.20;;;;;;;7.65;91.22;103144.06;7388793;19;20015;-67
2021/12/19 07:02:39;;;;;;;4.72;1.27;;;;;;;7.57;91.18;103143.56;7389319;19;20019;-67
2021/12/19 07:05:12;;;;;;;6.80;1.88;;;;;;;7.52;91.88;103135.94;7384137;19;20002;-66
2021/12/19 07:07:40;;;;;;;6.45;1.75;;;;;;;7.52;92.46;103137.72;7383588;19;20014;-66
2021/12/19 07:10:10;;;;;;;5.95;2.08;;;;;;;7.53;92.37;103135.03;7382443;19;20315;-66
2021/12/19 07:12:38;;;;;;;7.25;1.65;;;;;;;7.56;92.59;103148.00;7382539;19;20074;-68
2021/12/19 07:15:06;;;;;;;9.35;1.83;;;;;;;7.60;92.30;103151.31;7384960;19;20011;-67
2021/12/19 07:17:33;;;;;;;7.95;1.70;;;;;;;7.62;92.47;103149.44;7386847;19;20074;-68
2021/12/19 07:20:01;;;;;;;7.72;2.35;;;;;;;7.67;92.63;103148.28;7383343;19;20042;-68
2021/12/19 07:22:28;;;;;;;6.90;2.10;;;;;;;7.67;92.08;103153.53;7381407;19;20015;-68
2021/12/19 07:24:55;;;;;;;6.78;1.40;;;;;;;7.67;92.20;103153.53;7382503;19;20027;-69
2021/12/19 07:27:22;;;;;;;7.03;1.83;;;;;;;7.66;91.61;103151.00;7381206;19;20078;-67
2021/12/19 07:29:49;;;;;;;7.18;1.48;;;;;;;7.67;91.57;103150.91;7384421;19;20017;-68
2021/12/19 07:32:16;;;;;;;8.10;2.38;;;;;;;7.64;91.39;103144.97;7384472;19;20024;-68
2021/12/19 07:34:46;;;;;;;9.00;2.60;;;;;;;7.66;91.45;103153.63;7384723;19;20027;-68
2021/12/19 07:37:13;;;;;;;6.28;1.75;;;;;;;7.64;91.69;103135.34;7380331;19;20014;-67
2021/12/19 07:39:52;;;;;;;5.93;1.95;;;;;;;7.66;91.61;103140.53;7379899;19;20580;-70
2021/12/19 07:42:20;;;;;;;6.45;1.65;;;;;;;7.62;91.53;103134.56;7381992;19;20309;-68
2021/12/19 07:44:47;;;;;;;6.78;1.90;;;;;;;7.65;91.43;103139.69;7383650;19;20010;-66
2021/12/19 07:47:15;;;;;;;7.90;2.17;;;;;;;7.61;91.01;103137.28;7385011;19;20013;-67
2021/12/19 07:49:42;;;;;;;81.63;5.63;;;;;;;7.61;91.36;103134.66;7381531;19;20487;-68
2021/12/19 07:52:09;;;;;;;6.57;1.77;;;;;;;7.56;91.33;103147.16;7381630;19;20007;-67
2021/12/19 07:54:37;;;;;;;7.20;2.05;;;;;;;7.55;91.14;103135.81;7383113;19;20010;-68
2021/12/19 07:57:04;;;;;;;7.35;2.15;;;;;;;7.54;90.89;103128.03;7383554;19;20007;-68
2021/12/19 07:59:31;;;;;;;7.63;1.98;;;;;;;7.49;91.39;103133.50;7384861;19;20006;-69
2021/12/19 08:01:59;;;;;;;6.00;1.80;;;;;;;7.50;91.32;103122.09;7385679;19;20082;-67
2021/12/19 08:04:26;;;;;;;9.05;3.17;;;;;;;7.51;91.53;103120.34;7385768;19;20478;-68
2021/12/19 08:06:54;;;;;;;6.40;1.95;;;;;;;7.55;91.45;103121.88;7384870;19;20011;-66
2021/12/19 08:09:35;;;;;;;7.65;2.45;;;;;;;7.51;90.69;103123.81;7386317;19;20011;-66
2021/12/19 08:12:04;;;;;;;6.25;2.35;;;;;;;7.53;90.50;103128.94;7385639;19;20070;-68
2021/12/19 08:14:31;;;;;;;5.82;2.15;;;;;;;7.51;90.71;103117.72;7384254;19;20007;-69
2021/12/19 08:16:58;;;;;;;13.00;2.30;;;;;;;7.51;90.90;103122.94;7386586;19;20504;-67
2021/12/19 08:19:25;;;;;;;5.47;1.55;;;;;;;7.48;90.62;103113.47;7382639;19;20027;-67
2021/12/19 08:21:53;;;;;;;7.88;2.63;;;;;;;7.46;90.83;103119.72;7384219;19;20042;-67
2021/12/19 08:24:20;;;;;;;5.18;1.50;;;;;;;7.47;90.47;103113.53;7383907;19;20010;-68
2021/12/19 08:26:48;;;;;;;6.15;1.38;;;;;;;7.45;90.45;103118.88;7384308;19;20014;-67
2021/12/19 08:29:15;;;;;;;5.60;1.38;;;;;;;7.45;90.27;103112.78;7383859;19;20543;-68
2021/12/19 08:31:43;;;;;;;5.93;1.38;;;;;;;7.39;90.20;103124.41;7384091;19;20006;-68
2021/12/19 08:34:15;;;;;;;7.32;1.52;;;;;;;7.42;90.30;103120.75;7384971;19;20010;-68
2021/12/19 08:36:42;;;;;;;7.07;1.30;;;;;;;7.41;90.01;103119.09;7389575;19;20021;-69
2021/12/19 08:39:11;;;;;;;4.70;1.13;;;;;;;7.41;90.15;103125.19;7391805;19;20019;-69
2021/12/19 08:41:39;;;;;;;6.95;1.98;;;;;;;7.40;90.58;103128.72;7391352;19;20011;-67
2021/12/19 08:44:07;;;;;;;5.50;1.77;;;;;;;7.38;90.48;103127.06;7391694;19;21462;-68
2021/12/19 08:46:35;;;;;;;6.25;1.15;;;;;;;7.36;90.22;103121.09;7388693;19;20063;-68
2021/12/19 08:49:04;;;;;;;5.75;1.48;;;;;;;7.37;90.06;103126.22;7390303;19;20114;-66
2021/12/19 08:51:32;;;;;;;4.45;1.40;;;;;;;7.34;89.97;103120.31;7391132;19;20016;-67
2021/12/19 08:54:00;;;;;;;4.07;1.30;;;;;;;7.28;89.98;103116.22;7392353;19;20011;-71
2021/12/19 08:56:29;;;;;;;7.53;1.70;;;;;;;7.24;90.46;103115.53;7393275;19;20039;-68
2021/12/19 08:58:56;;;;;;;2.85;0.98;;;;;;;7.25;90.06;103114.59;7389528;19;20116;-67
2021/12/19 09:01:24;;;;;;;4.30;0.93;;;;;;;7.17;89.25;103110.63;7389116;19;20010;-67
2021/12/19 09:03:51;;;;;;;2.10;0.50;;;;;;;7.17;88.51;103115.88;7390674;19;20014;-68
2021/12/19 09:06:18;;;;;;;3.53;1.00;;;;;;;7.11;88.72;103117.00;7391222;19;20527;-68
2021/12/19 09:08:46;;;;;;;2.42;0.80;;;;;;;7.12;89.46;103120.47;7388513;19;20504;-68
2021/12/19 09:11:13;;;;;;;4.05;1.17;;;;;;;7.17;89.02;103113.25;7390681;19;20014;-67
2021/12/19 09:13:40;;;;;;;3.15;0.80;;;;;;;7.17;88.36;103114.09;7390222;19;20038;-67
2021/12/19 09:16:08;;;;;;;4.45;0.93;;;;;;;7.12;88.87;103113.47;7391971;19;20007;-68
2021/12/19 09:18:35;;;;;;;3.90;1.23;;;;;;;7.11;89.03;103114.41;7389841;19;20007;-67
2021/12/19 09:21:04;;;;;;;4.15;0.98;;;;;;;7.16;89.32;103108.97;7386525;19;20513;-66
2021/12/19 09:23:33;;;;;;;3.53;1.00;;;;;;;7.20;89.07;103118.38;7387041;19;20034;-67
2021/12/19 09:26:08;;;;;;;5.15;1.15;;;;;;;7.27;89.07;103122.38;7389054;19;20503;-67
2021/12/19 09:28:36;;;;;;;5.68;1.58;;;;;;;7.27;89.17;103111.88;7389297;19;20021;-66
2021/12/19 09:31:03;;;;;;;2.67;0.75;;;;;;;7.31;89.14;103119.50;7385955;19;20010;-67
2021/12/19 09:33:30;;;;;;;2.75;0.68;;;;;;;7.35;87.66;103116.75;7391569;19;20445;-68
2021/12/19 09:35:59;;;;;;;2.03;0.55;;;;;;;7.38;87.69;103122.69;7388229;19;20421;-68
2021/12/19 09:38:27;;;;;;;2.35;0.60;;;;;;;7.44;87.28;103119.78;7383482;19;20010;-66
2021/12/19 09:41:00;;;;;;;5.72;1.92;;;;;;;7.45;86.77;103126.72;7375512;19;20507;-67
2021/12/19 09:45:59;;;;;;;2.40;0.80;;;;;;;7.44;86.61;103135.50;7388189;19;20028;-68
2021/12/19 09:48:27;;;;;;;2.78;0.82;;;;;;;7.45;86.54;103139.81;7390093;19;20361;-67
2021/12/19 09:50:55;;;;;;;2.47;0.82;;;;;;;7.48;86.84;103136.19;7390823;19;20356;-67
2021/12/19 09:53:22;;;;;;;3.10;0.90;;;;;;;7.51;86.60;103144.75;7389204;19;20013;-67
2021/12/19 09:55:50;;;;;;;3.55;0.80;;;;;;;7.56;86.08;103144.53;7388979;19;20011;-66
2021/12/19 09:58:17;;;;;;;3.38;1.08;;;;;;;7.62;86.12;103145.03;7390725;19;20010;-67
2021/12/19 10:00:44;;;;;;;3.03;1.33;;;;;;;7.60;85.85;103138.22;7389555;19;20012;-69
2021/12/19 10:03:11;;;;;;;3.78;1.08;;;;;;;7.61;86.39;103147.78;7388488;19;20078;-67
2021/12/19 10:05:39;;;;;;;3.90;1.13;;;;;;;7.51;85.60;103157.00;7386782;19;20729;-67
2021/12/19 10:08:06;;;;;;;2.78;0.63;;;;;;;7.44;86.12;103147.75;7390000;19;20011;-69
2021/12/19 10:13:10;;;;;;;2.58;1.00;;;;;;;7.39;87.68;103150.59;7388723;19;20014;-67
2021/12/19 10:15:39;;;;;;;4.45;1.17;;;;;;;7.36;87.43;103145.50;7387414;19;20007;-67
2021/12/19 10:18:08;;;;;;;3.97;1.17;;;;;;;7.41;87.42;103150.53;7387369;19;20014;-67
2021/12/19 10:20:40;;;;;;;3.00;0.93;;;;;;;7.37;87.44;103144.56;7385075;19;20003;-67
2021/12/19 10:23:11;;;;;;;4.27;0.90;;;;;;;7.39;87.70;103142.72;7386409;19;20034;-66
2021/12/19 10:25:38;;;;;;;6.38;1.55;;;;;;;7.39;87.67;103150.59;7389139;19;20301;-68
2021/12/19 10:28:09;;;;;;;8.77;1.65;;;;;;;7.44;87.27;103137.25;7390469;19;20017;-67
2021/12/19 10:30:43;;;;;;;2.60;0.90;;;;;;;7.44;87.38;103139.88;7389007;19;20003;-66
2021/12/19 10:33:13;;;;;;;4.32;0.80;;;;;;;7.47;87.03;103140.56;7386845;19;20519;-67
2021/12/19 10:35:44;;;;;;;2.83;0.60;;;;;;;7.52;86.39;103142.97;7388497;19;20070;-67
2021/12/19 10:38:16;;;;;;;4.22;1.63;;;;;;;7.57;87.20;103133.09;7385164;19;20015;-67
2021/12/19 10:40:51;;;;;;;3.30;0.80;;;;;;;7.60;86.09;103127.72;7385340;19;20031;-67
2021/12/19 10:43:19;;;;;;;2.10;0.75;;;;;;;7.57;84.64;103125.25;7386450;19;20026;-68
2021/12/19 10:45:51;;;;;;;2.83;0.90;;;;;;;7.51;85.45;103121.19;7385778;19;20018;-68
2021/12/19 10:48:25;;;;;;;1.58;0.80;;;;;;;7.50;85.62;103116.00;7387301;19;20014;-69
2021/12/19 10:50:54;;;;;;;1.85;0.80;;;;;;;7.33;86.06;103106.34;7386485;19;20094;-69
2021/12/19 10:53:26;;;;;;;2.17;0.75;;;;;;;7.24;86.48;103102.44;7384794;19;20010;-67
2021/12/19 10:55:54;;;;;;;2.70;1.00;;;;;;;7.20;87.49;103100.03;7385699;19;20014;-67
2021/12/19 10:58:27;;;;;;;3.60;1.00;;;;;;;7.08;88.02;103101.47;7383282;19;20010;-67
2021/12/19 11:01:04;;;;;;;3.17;0.85;;;;;;;7.08;87.91;103103.25;7386455;19;20504;-67
2021/12/19 11:03:35;;;;;;;2.50;1.00;;;;;;;7.03;88.35;103098.22;7386691;19;20082;-68
2021/12/19 11:06:09;;;;;;;3.95;1.10;;;;;;;7.06;88.64;103090.22;7387543;19;20047;-66
2021/12/19 11:08:37;;;;;;;2.60;0.85;;;;;;;7.06;88.70;103084.97;7388078;19;21139;-68
2021/12/19 11:11:04;;;;;;;6.70;2.08;;;;;;;7.11;89.13;103082.16;7385392;19;20017;-68
2021/12/19 11:13:32;;;;;;;5.47;2.15;;;;;;;7.22;90.01;103087.69;7389351;19;20027;-70
2021/12/19 11:15:59;;;;;;;7.72;2.83;;;;;;;7.28;89.66;103077.78;7389805;19;20007;-67
2021/12/19 11:18:26;;;;;;;109.95;7.32;;;;;;;7.36;89.42;103074.81;7387352;19;20021;-69
2021/12/19 11:20:54;;;;;;;7.57;2.05;;;;;;;7.46;89.29;103069.94;7386817;19;20014;-68
2021/12/19 11:23:21;;;;;;;4.07;1.50;;;;;;;7.45;88.51;103063.88;7387559;19;20022;-68
2021/12/19 11:25:50;;;;;;;5.70;1.75;;;;;;;7.41;88.24;103054.47;7387706;19;20473;-67
2021/12/19 11:28:17;;;;;;;5.35;1.85;;;;;;;7.44;88.65;103059.53;7385013;19;20070;-67
2021/12/19 11:30:45;;;;;;;11.18;2.65;;;;;;;7.45;88.88;103055.16;7386162;19;20025;-68
2021/12/19 11:33:13;;;;;;;18.92;4.07;;;;;;;7.48;89.19;103047.97;7387143;19;20014;-68
2021/12/19 11:35:46;;;;;;;3.63;1.40;;;;;;;7.49;89.44;103046.22;7385936;19;20593;-68
2021/12/19 11:38:18;;;;;;;3.30;1.00;;;;;;;7.49;89.73;103038.34;7386416;19;20214;-68
2021/12/19 11:40:51;;;;;;;5.38;1.50;;;;;;;7.53;89.34;103026.78;7385783;19;20111;-66
2021/12/19 11:43:21;;;;;;;5.75;1.63;;;;;;;7.53;89.23;103029.41;7384620;19;20013;-68
2021/12/19 11:45:59;;;;;;;6.72;2.25;;;;;;;7.55;89.37;103019.72;7382366;19;20014;-68
2021/12/19 11:48:31;;;;;;;5.68;2.35;;;;;;;7.56;89.30;103019.66;7381803;19;20042;-68
2021/12/19 11:51:00;;;;;;;6.63;2.33;;;;;;;7.60;89.81;103020.31;7386577;19;20445;-67
2021/12/19 11:53:28;;;;;;;6.97;2.80;;;;;;;7.62;89.98;103010.59;7387448;19;20043;-67
2021/12/19 11:56:06;;;;;;;3.58;1.80;;;;;;;7.64;89.63;103006.13;7384783;19;20009;-68
2021/12/19 11:58:42;;;;;;;4.68;1.85;;;;;;;7.67;89.38;103001.56;7385761;19;20014;-67
2021/12/19 12:01:13;;;;;;;5.95;2.63;;;;;;;7.69;89.28;102991.88;7383178;19;20702;-67
2021/12/19 12:03:45;;;;;;;15.38;2.80;;;;;;;7.72;88.94;102993.47;7383790;19;20017;-67
2021/12/19 12:06:20;;;;;;;5.68;1.88;;;;;;;7.74;89.17;102989.84;7386638;19;20011;-69
2021/12/19 12:08:53;;;;;;;5.32;2.50;;;;;;;7.78;88.95;102993.16;7385665;19;20459;-67
2021/12/19 12:11:20;;;;;;;5.45;2.00;;;;;;;7.80;88.97;102982.59;7391405;19;20011;-68
2021/12/19 12:13:48;;;;;;;6.18;2.53;;;;;;;7.81;89.21;102987.78;7394713;19;20178;-67
2021/12/19 12:18:56;;;;;;;6.32;2.50;;;;;;;7.84;88.38;102978.88;7393391;19;20690;-68
2021/12/19 12:21:29;;;;;;;6.65;2.38;;;;;;;7.79;88.37;102978.28;7388704;19;20010;-67
2021/12/19 12:24:02;;;;;;;6.60;2.58;;;;;;;7.72;88.76;102977.75;7392139;19;20010;-66
2021/12/19 12:26:37;;;;;;;33.45;4.32;;;;;;;7.71;89.98;102984.78;7388525;19;20003;-67
2021/12/19 12:29:06;;;;;;;5.47;2.33;;;;;;;7.72;90.04;102988.22;7391587;19;20011;-66
2021/12/19 12:31:34;;;;;;;8.32;3.60;;;;;;;7.76;90.19;102983.69;7391778;19;20024;-68
2021/12/19 12:34:02;;;;;;;16.75;4.38;;;;;;;7.81;90.29;102982.53;7387973;19;20029;-67
2021/12/19 12:36:29;;;;;;;6.57;2.65;;;;;;;7.86;89.26;102980.50;7393548;19;20044;-68
2021/12/19 12:38:56;;;;;;;5.03;2.38;;;;;;;7.84;89.16;102978.88;7392938;19;20541;-68
2021/12/19 12:41:29;;;;;;;4.40;2.03;;;;;;;7.81;87.89;102972.06;7389581;19;20024;-68
2021/12/19 12:44:04;;;;;;;51.25;5.15;;;;;;;7.77;89.26;102960.03;7386827;19;20027;-67
2021/12/19 12:46:31;;;;;;;5.03;1.98;;;;;;;7.66;89.03;102968.47;7389285;19;20014;-68
2021/12/19 12:49:04;;;;;;;7.45;2.53;;;;;;;7.59;89.05;102966.22;7387923;19;20101;-67
2021/12/19 12:51:35;;;;;;;6.43;2.60;;;;;;;7.53;90.13;102962.16;7386842;19;20094;-66
2021/12/19 12:54:08;;;;;;;13.52;3.33;;;;;;;7.57;91.02;102955.84;7386034;19;20011;-68
2021/12/19 12:56:42;;;;;;;10.35;3.35;;;;;;;7.60;91.07;102954.84;7388649;19;20631;-68